sensor_id;sensor_type;location;lat;lon;timestamp;pressure;altitude;pressure_sealevel;temperature;humidity
63901;BME280;50538;53.482;10.294;2022-09-27T00:02:51;98837.28;;;16.21;66.45
63901;BME280;50538;53.482;10.294;2022-09-27T00:12:52;98831.34;;;16.19;66.40
63901;BME280;50538;53.482;10.294;2022-09-27T00:22:53;98827.06;;;16.18;66.42
63901;BME280;50538;53.482;10.294;2022-09-27T00:32:55;98826.00;;;16.19;66.69
63901;BME280;50538;53.482;10.294;2022-09-27T00:42:55;98808.88;;;16.20;66.77
63901;BME280;50538;53.482;10.294;2022-09-27T00:53:16;98803.03;;;16.23;66.53
63901;BME280;50538;53.482;10.294;2022-09-27T01:03:48;98790.13;;;16.20;66.74
63901;BME280;50538;53.482;10.294;2022-09-27T01:24:43;98772.13;;;16.16;66.97
63901;BME280;50538;53.482;10.294;2022-09-27T01:35:09;98767.59;;;16.16;67.10
63901;BME280;50538;53.482;10.294;2022-09-27T01:45:22;98758.25;;;16.19;67.16
63901;BME280;50538;53.482;10.294;2022-09-27T01:55:30;98747.41;;;16.09;67.07
63901;BME280;50538;53.482;10.294;2022-09-27T02:05:49;98742.31;;;16.07;67.35
63901;BME280;50538;53.482;10.294;2022-09-27T02:36:11;98718.25;;;16.12;67.50
63901;BME280;50538;53.482;10.294;2022-09-27T02:56:25;98711.28;;;16.11;67.25
63901;BME280;50538;53.482;10.294;2022-09-27T03:06:32;98699.03;;;16.15;67.33
63901;BME280;50538;53.482;10.294;2022-09-27T03:16:33;98697.16;;;16.16;67.32
63901;BME280;50538;53.482;10.294;2022-09-27T03:26:34;98682.41;;;16.13;67.41
63901;BME280;50538;53.482;10.294;2022-09-27T03:36:35;98686.13;;;16.12;67.19
63901;BME280;50538;53.482;10.294;2022-09-27T03:46:35;98677.34;;;16.17;67.49
63901;BME280;50538;53.482;10.294;2022-09-27T03:56:36;98670.94;;;16.18;67.43
63901;BME280;50538;53.482;10.294;2022-09-27T04:06:37;98660.47;;;16.16;67.17
63901;BME280;50538;53.482;10.294;2022-09-27T04:16:38;98655.81;;;16.07;67.52
63901;BME280;50538;53.482;10.294;2022-09-27T04:26:42;98655.31;;;16.10;67.55
63901;BME280;50538;53.482;10.294;2022-09-27T04:36:47;98655.63;;;16.13;67.65
63901;BME280;50538;53.482;10.294;2022-09-27T04:46:48;98659.72;;;16.21;67.33
63901;BME280;50538;53.482;10.294;2022-09-27T04:56:48;98655.47;;;16.25;67.22
63901;BME280;50538;53.482;10.294;2022-09-27T05:06:49;98652.44;;;16.16;67.58
63901;BME280;50538;53.482;10.294;2022-09-27T05:16:52;98658.31;;;16.13;67.74
63901;BME280;50538;53.482;10.294;2022-09-27T05:26:53;98658.56;;;16.12;67.68
63901;BME280;50538;53.482;10.294;2022-09-27T05:36:54;98651.84;;;16.09;67.91
63901;BME280;50538;53.482;10.294;2022-09-27T05:46:54;98665.78;;;16.11;67.94
63901;BME280;50538;53.482;10.294;2022-09-27T05:56:55;98657.69;;;16.28;67.64
63901;BME280;50538;53.482;10.294;2022-09-27T06:06:59;98669.19;;;16.29;67.94
63901;BME280;50538;53.482;10.294;2022-09-27T06:17:00;98666.78;;;16.27;68.26
63901;BME280;50538;53.482;10.294;2022-09-27T06:27:01;98673.16;;;16.26;68.65
63901;BME280;50538;53.482;10.294;2022-09-27T06:37:02;98671.53;;;16.25;68.87
63901;BME280;50538;53.482;10.294;2022-09-27T06:47:02;98672.06;;;16.22;68.70
63901;BME280;50538;53.482;10.294;2022-09-27T06:57:02;98692.50;;;16.28;68.89
63901;BME280;50538;53.482;10.294;2022-09-27T07:07:03;98691.22;;;16.36;68.57
63901;BME280;50538;53.482;10.294;2022-09-27T07:17:03;98701.38;;;16.34;67.91
63901;BME280;50538;53.482;10.294;2022-09-27T07:27:04;98707.28;;;16.36;67.94
63901;BME280;50538;53.482;10.294;2022-09-27T07:37:05;98719.75;;;16.25;67.90
63901;BME280;50538;53.482;10.294;2022-09-27T07:47:06;98728.16;;;16.34;68.06
63901;BME280;50538;53.482;10.294;2022-09-27T07:57:07;98728.41;;;16.32;67.81
63901;BME280;50538;53.482;10.294;2022-09-27T08:07:09;98740.78;;;16.38;67.43
63901;BME280;50538;53.482;10.294;2022-09-27T08:17:10;98738.94;;;16.66;67.38
63901;BME280;50538;53.482;10.294;2022-09-27T08:27:10;98757.63;;;16.93;67.38
63901;BME280;50538;53.482;10.294;2022-09-27T08:37:12;98757.06;;;17.17;66.06
63901;BME280;50538;53.482;10.294;2022-09-27T08:57:23;98775.59;;;16.92;66.04
63901;BME280;50538;53.482;10.294;2022-09-27T09:07:50;98787.78;;;17.05;65.41
63901;BME280;50538;53.482;10.294;2022-09-27T09:38:39;98794.50;;;16.75;65.58
63901;BME280;50538;53.482;10.294;2022-09-27T09:48:46;98812.84;;;16.62;65.58
63901;BME280;50538;53.482;10.294;2022-09-27T09:58:53;98807.19;;;16.58;65.38
63901;BME280;50538;53.482;10.294;2022-09-27T10:08:55;98813.91;;;16.61;65.93
63901;BME280;50538;53.482;10.294;2022-09-27T10:18:59;98816.06;;;16.91;65.99
63901;BME280;50538;53.482;10.294;2022-09-27T10:39:22;98820.69;;;17.27;65.42
63901;BME280;50538;53.482;10.294;2022-09-27T10:49:31;98827.44;;;17.30;64.44
63901;BME280;50538;53.482;10.294;2022-09-27T10:59:35;98841.66;;;17.30;64.43
63901;BME280;50538;53.482;10.294;2022-09-27T11:09:53;98843.38;;;17.41;64.13
63901;BME280;50538;53.482;10.294;2022-09-27T11:51:41;98842.63;;;17.88;62.50
63901;BME280;50538;53.482;10.294;2022-09-27T12:02:12;98848.34;;;18.07;61.35
63901;BME280;50538;53.482;10.294;2022-09-27T12:12:24;98848.53;;;18.37;61.81
63901;BME280;50538;53.482;10.294;2022-09-27T12:22:31;98860.50;;;18.19;60.64
63901;BME280;50538;53.482;10.294;2022-09-27T12:42:48;98867.56;;;18.31;60.10
63901;BME280;50538;53.482;10.294;2022-09-27T12:52:56;98864.66;;;18.37;59.38
63901;BME280;50538;53.482;10.294;2022-09-27T13:03:20;98867.34;;;18.37;58.84
63901;BME280;50538;53.482;10.294;2022-09-27T13:13:26;98868.78;;;18.08;60.50
63901;BME280;50538;53.482;10.294;2022-09-27T13:43:45;98905.50;;;17.92;59.50
63901;BME280;50538;53.482;10.294;2022-09-27T13:54:03;98914.88;;;17.90;58.99
63901;BME280;50538;53.482;10.294;2022-09-27T14:04:43;98922.06;;;17.84;59.69
63901;BME280;50538;53.482;10.294;2022-09-27T14:14:48;98926.50;;;17.68;60.09
63901;BME280;50538;53.482;10.294;2022-09-27T14:24:52;98946.78;;;17.54;60.28
63901;BME280;50538;53.482;10.294;2022-09-27T14:35:03;98955.13;;;17.58;60.62
63901;BME280;50538;53.482;10.294;2022-09-27T14:45:27;98950.81;;;17.57;59.66
63901;BME280;50538;53.482;10.294;2022-09-27T14:55:29;98955.84;;;17.48;60.46
63901;BME280;50538;53.482;10.294;2022-09-27T15:05:34;98974.06;;;17.46;59.42
63901;BME280;50538;53.482;10.294;2022-09-27T15:15:36;98979.09;;;17.37;60.82
63901;BME280;50538;53.482;10.294;2022-09-27T15:25:42;98980.47;;;17.40;60.74
63901;BME280;50538;53.482;10.294;2022-09-27T15:36:00;98984.22;;;17.39;60.87
63901;BME280;50538;53.482;10.294;2022-09-27T15:46:09;98991.81;;;17.25;60.90
63901;BME280;50538;53.482;10.294;2022-09-27T15:56:23;99002.31;;;17.05;60.73
63901;BME280;50538;53.482;10.294;2022-09-27T16:06:25;99005.09;;;16.93;60.37
63901;BME280;50538;53.482;10.294;2022-09-27T16:16:26;99009.09;;;16.91;60.97
63901;BME280;50538;53.482;10.294;2022-09-27T16:26:30;99014.28;;;16.97;61.75
63901;BME280;50538;53.482;10.294;2022-09-27T16:36:30;99035.88;;;16.85;61.42
63901;BME280;50538;53.482;10.294;2022-09-27T16:46:31;99047.41;;;16.86;61.16
63901;BME280;50538;53.482;10.294;2022-09-27T16:56:34;99051.47;;;16.72;61.13
63901;BME280;50538;53.482;10.294;2022-09-27T17:06:34;99069.84;;;16.46;60.60
63901;BME280;50538;53.482;10.294;2022-09-27T17:16:35;99069.38;;;16.49;61.25
63901;BME280;50538;53.482;10.294;2022-09-27T17:26:35;99067.50;;;16.50;61.74
63901;BME280;50538;53.482;10.294;2022-09-27T17:36:37;99073.34;;;16.47;61.60
63901;BME280;50538;53.482;10.294;2022-09-27T17:46:41;99076.66;;;16.37;62.21
63901;BME280;50538;53.482;10.294;2022-09-27T17:56:42;99078.78;;;16.35;62.43
63901;BME280;50538;53.482;10.294;2022-09-27T18:06:44;99076.75;;;16.42;62.50
63901;BME280;50538;53.482;10.294;2022-09-27T18:16:45;99079.25;;;16.32;62.74
63901;BME280;50538;53.482;10.294;2022-09-27T18:26:46;99096.31;;;16.26;62.69
63901;BME280;50538;53.482;10.294;2022-09-27T18:36:48;99092.56;;;16.10;62.16
63901;BME280;50538;53.482;10.294;2022-09-27T18:46:49;99093.22;;;16.17;63.06
63901;BME280;50538;53.482;10.294;2022-09-27T18:56:52;99103.50;;;16.09;62.74
63901;BME280;50538;53.482;10.294;2022-09-27T19:06:55;99109.38;;;15.94;62.92
63901;BME280;50538;53.482;10.294;2022-09-27T19:16:56;99108.56;;;15.94;63.26
63901;BME280;50538;53.482;10.294;2022-09-27T19:26:56;99119.84;;;15.96;63.50
63901;BME280;50538;53.482;10.294;2022-09-27T19:36:57;99112.22;;;15.87;63.88
63901;BME280;50538;53.482;10.294;2022-09-27T19:46:57;99120.25;;;15.87;64.18
63901;BME280;50538;53.482;10.294;2022-09-27T19:56:57;99115.38;;;15.84;64.07
63901;BME280;50538;53.482;10.294;2022-09-27T20:06:58;99113.88;;;15.77;64.19
63901;BME280;50538;53.482;10.294;2022-09-27T20:16:59;99117.94;;;15.79;64.03
63901;BME280;50538;53.482;10.294;2022-09-27T20:26:59;99114.69;;;15.77;64.25
63901;BME280;50538;53.482;10.294;2022-09-27T20:36:59;99117.59;;;15.76;64.14
63901;BME280;50538;53.482;10.294;2022-09-27T20:47:00;99115.03;;;15.81;63.99
63901;BME280;50538;53.482;10.294;2022-09-27T20:57:00;99106.28;;;15.85;63.86
63901;BME280;50538;53.482;10.294;2022-09-27T21:07:01;99114.22;;;15.80;64.00
63901;BME280;50538;53.482;10.294;2022-09-27T21:17:02;99111.78;;;15.79;64.12
63901;BME280;50538;53.482;10.294;2022-09-27T21:27:03;99114.34;;;15.74;64.01
63901;BME280;50538;53.482;10.294;2022-09-27T21:37:03;99107.56;;;15.66;64.02
63901;BME280;50538;53.482;10.294;2022-09-27T21:47:04;99123.41;;;15.56;64.57
63901;BME280;50538;53.482;10.294;2022-09-27T21:57:04;99120.50;;;15.46;64.81
63901;BME280;50538;53.482;10.294;2022-09-27T22:07:05;99131.13;;;15.41;64.50
63901;BME280;50538;53.482;10.294;2022-09-27T22:17:05;99135.31;;;15.37;64.53
63901;BME280;50538;53.482;10.294;2022-09-27T22:27:06;99139.84;;;15.36;64.39
63901;BME280;50538;53.482;10.294;2022-09-27T22:37:06;99138.34;;;15.29;64.72
63901;BME280;50538;53.482;10.294;2022-09-27T22:47:07;99147.28;;;14.64;65.79
63901;BME280;50538;53.482;10.294;2022-09-27T22:57:07;99136.47;;;14.36;66.35
63901;BME280;50538;53.482;10.294;2022-09-27T23:07:08;99142.56;;;14.24;66.67
63901;BME280;50538;53.482;10.294;2022-09-27T23:17:08;99133.63;;;14.19;66.72
63901;BME280;50538;53.482;10.294;2022-09-27T23:27:09;99140.31;;;14.10;66.95
63901;BME280;50538;53.482;10.294;2022-09-27T23:37:28;99134.25;;;14.03;67.11
63901;BME280;50538;53.482;10.294;2022-09-27T23:47:29;99135.44;;;13.95;66.87
63901;BME280;50538;53.482;10.294;2022-09-27T23:57:29;99133.78;;;13.94;66.90
